Time;durP1;ratioP1;P1;durP2;ratioP2;P2;SDS_P1;SDS_P2;PMS_P1;PMS_P2;Temp;Humidity;BMP_temperature;BMP_pressure;BME280_temperature;BME280_humidity;BME280_pressure;Samples;Min_cycle;Max_cycle;Signal;HPM_P1;HPM_P2
2024/04/06 00:01:46;;;;;;;2.67;2.47;;;17.30;99.90;;;;;;5012795;28;20433;-62
2024/04/06 00:04:12;;;;;;;4.37;4.00;;;17.30;99.90;;;;;;5010805;28;20442;-62
2024/04/06 00:06:38;;;;;;;3.70;3.50;;;17.30;99.90;;;;;;5011844;28;20285;-62
2024/04/06 00:09:04;;;;;;;2.33;1.63;;;17.30;99.90;;;;;;5012311;28;20179;-62
2024/04/06 00:11:30;;;;;;;3.70;3.53;;;17.40;99.90;;;;;;5013099;28;20410;-62
2024/04/06 00:13:56;;;;;;;3.30;3.20;;;17.30;99.90;;;;;;5012298;28;20468;-62
2024/04/06 00:16:21;;;;;;;3.00;2.90;;;17.40;99.90;;;;;;5012793;28;20262;-62
2024/04/06 00:18:47;;;;;;;2.80;2.70;;;17.40;99.90;;;;;;5013126;28;20684;-63
2024/04/06 00:21:13;;;;;;;4.03;3.83;;;17.50;99.90;;;;;;5012085;28;20515;-62
2024/04/06 00:23:38;;;;;;;3.27;2.97;;;17.50;99.90;;;;;;5012800;28;20515;-62
2024/04/06 00:26:04;;;;;;;3.10;2.60;;;17.50;99.90;;;;;;5012287;28;20610;-62
2024/04/06 00:28:30;;;;;;;2.70;2.60;;;17.50;99.90;;;;;;5012924;28;20167;-62
2024/04/06 00:30:57;;;;;;;3.10;3.00;;;17.50;99.90;;;;;;5012303;28;20262;-61
2024/04/06 00:33:22;;;;;;;3.13;3.03;;;17.50;99.90;;;;;;5011905;28;20473;-62
2024/04/06 00:35:48;;;;;;;3.00;2.80;;;17.50;99.90;;;;;;5012002;28;20433;-62
2024/04/06 00:38:14;;;;;;;2.90;2.80;;;17.50;99.90;;;;;;5012178;28;20392;-62
2024/04/06 00:40:40;;;;;;;3.10;3.00;;;17.50;99.90;;;;;;5012726;28;20402;-62
2024/04/06 00:43:06;;;;;;;3.07;2.87;;;17.50;99.90;;;;;;5012188;28;20207;-62
2024/04/06 00:45:31;;;;;;;4.00;3.53;;;17.40;99.90;;;;;;5012599;28;20174;-62
2024/04/06 00:47:57;;;;;;;3.30;3.20;;;17.40;99.90;;;;;;5010588;28;20207;-62
2024/04/06 00:50:23;;;;;;;3.50;3.30;;;17.50;99.90;;;;;;5010279;28;20178;-62
2024/04/06 00:52:49;;;;;;;3.70;3.50;;;17.50;99.90;;;;;;5012232;28;20489;-62
2024/04/06 00:55:16;;;;;;;3.23;3.00;;;17.50;99.90;;;;;;5011321;28;20763;-62
2024/04/06 00:57:42;;;;;;;4.10;3.87;;;17.40;99.90;;;;;;5012379;28;20189;-62
2024/04/06 01:00:08;;;;;;;3.93;3.40;;;17.40;99.90;;;;;;5012062;28;20414;-62
2024/04/06 01:02:34;;;;;;;3.83;3.63;;;17.40;99.90;;;;;;5010467;28;20629;-62
2024/04/06 01:05:00;;;;;;;3.87;3.30;;;17.40;99.90;;;;;;5011606;28;20418;-62
2024/04/06 01:07:27;;;;;;;3.43;3.23;;;17.40;99.90;;;;;;5011265;28;20245;-62
2024/04/06 01:09:54;;;;;;;3.53;3.43;;;17.20;99.90;;;;;;5011608;28;20197;-62
2024/04/06 01:12:20;;;;;;;3.47;3.27;;;17.20;99.90;;;;;;5011637;28;20452;-63
2024/04/06 01:14:45;;;;;;;4.00;3.70;;;17.20;99.90;;;;;;5012280;28;20457;-62
2024/04/06 01:17:11;;;;;;;3.47;3.27;;;17.10;99.90;;;;;;5013299;28;20186;-63
2024/04/06 01:19:37;;;;;;;4.20;3.80;;;17.10;99.90;;;;;;5016262;28;20201;-62
2024/04/06 01:22:04;;;;;;;4.13;3.83;;;17.20;99.90;;;;;;5015154;28;20257;-62
2024/04/06 01:24:31;;;;;;;4.10;3.80;;;17.20;99.90;;;;;;5014435;28;20194;-62
2024/04/06 01:26:58;;;;;;;3.33;3.23;;;17.20;99.90;;;;;;5015880;28;20497;-62
2024/04/06 01:29:28;;;;;;;3.13;2.90;;;17.30;99.90;;;;;;5014218;28;20496;-62
2024/04/06 01:31:54;;;;;;;5.00;4.70;;;17.30;99.90;;;;;;5015524;28;20418;-63
2024/04/06 01:34:20;;;;;;;4.30;4.10;;;17.40;99.90;;;;;;5015326;28;20821;-62
2024/04/06 01:36:47;;;;;;;4.93;3.53;;;17.30;99.90;;;;;;5015580;28;20499;-62
2024/04/06 01:39:12;;;;;;;3.90;3.60;;;17.30;99.90;;;;;;5014788;28;20421;-62
2024/04/06 01:41:39;;;;;;;3.60;3.50;;;17.30;99.90;;;;;;5015383;28;20460;-62
2024/04/06 01:44:06;;;;;;;3.33;3.13;;;17.30;99.90;;;;;;5013657;28;20187;-62
2024/04/06 01:46:32;;;;;;;4.20;4.00;;;17.30;99.90;;;;;;5015220;28;20917;-62
2024/04/06 01:48:59;;;;;;;3.43;3.33;;;17.30;99.90;;;;;;5015280;28;20501;-61
2024/04/06 01:51:26;;;;;;;3.80;3.50;;;17.30;99.90;;;;;;5015462;28;20432;-62
2024/04/06 01:53:51;;;;;;;3.87;3.67;;;17.30;99.90;;;;;;5013506;28;20466;-62
2024/04/06 01:56:17;;;;;;;4.20;3.30;;;17.40;99.90;;;;;;5013299;28;20491;-62
2024/04/06 01:58:44;;;;;;;5.50;5.10;;;17.30;99.90;;;;;;5008407;28;20179;-62
2024/04/06 02:01:10;;;;;;;4.23;4.03;;;17.30;99.90;;;;;;5014296;28;20176;-62
2024/04/06 02:03:36;;;;;;;4.00;3.80;;;17.30;99.90;;;;;;5015026;28;20462;-62
2024/04/06 02:06:02;;;;;;;3.83;3.50;;;17.30;99.90;;;;;;5014317;28;20425;-62
2024/04/06 02:08:28;;;;;;;3.57;3.47;;;17.30;99.90;;;;;;5015388;28;20540;-62
2024/04/06 02:10:53;;;;;;;3.43;3.33;;;17.30;99.90;;;;;;5014633;28;20183;-62
2024/04/06 02:13:19;;;;;;;4.90;4.70;;;17.30;99.90;;;;;;5014285;28;20425;-62
2024/04/06 02:15:45;;;;;;;4.60;3.67;;;17.30;99.90;;;;;;5014766;28;20190;-62
2024/04/06 02:18:12;;;;;;;3.20;3.10;;;17.30;99.90;;;;;;5014195;28;20179;-62
2024/04/06 02:20:39;;;;;;;3.77;3.57;;;17.30;99.90;;;;;;5014902;28;20418;-63
2024/04/06 02:23:05;;;;;;;4.97;4.77;;;17.30;99.90;;;;;;5013155;28;20461;-62
2024/04/06 02:25:32;;;;;;;3.87;3.47;;;17.30;99.90;;;;;;5014737;28;20442;-63
2024/04/06 02:27:58;;;;;;;3.70;3.50;;;17.30;99.90;;;;;;5014725;28;20185;-62
2024/04/06 02:30:24;;;;;;;4.30;3.73;;;17.30;99.90;;;;;;5013703;28;20417;-62
2024/04/06 02:32:49;;;;;;;4.73;4.43;;;17.30;99.90;;;;;;5014291;28;20461;-62
2024/04/06 02:35:15;;;;;;;3.83;3.40;;;17.20;99.90;;;;;;5013987;28;20183;-62
2024/04/06 02:37:43;;;;;;;3.53;3.37;;;17.20;99.90;;;;;;5013066;28;20183;-62
2024/04/06 02:40:09;;;;;;;3.30;3.20;;;17.10;99.90;;;;;;5013880;28;20414;-62
2024/04/06 02:42:35;;;;;;;3.53;3.43;;;17.10;99.90;;;;;;5014427;28;20414;-62
2024/04/06 02:45:03;;;;;;;3.60;3.40;;;17.10;99.90;;;;;;5014140;28;20471;-62
2024/04/06 02:47:29;;;;;;;3.97;3.77;;;17.20;99.90;;;;;;5013289;28;20572;-62
2024/04/06 02:49:55;;;;;;;3.50;3.40;;;17.20;99.90;;;;;;5014300;28;20509;-62
2024/04/06 02:52:21;;;;;;;3.77;3.50;;;17.20;99.90;;;;;;5013451;28;20414;-62
2024/04/06 02:54:48;;;;;;;3.90;3.70;;;17.20;99.90;;;;;;5012750;28;20191;-62
2024/04/06 02:57:13;;;;;;;4.60;4.30;;;17.20;99.90;;;;;;5013482;28;20410;-62
2024/04/06 02:59:39;;;;;;;4.27;3.97;;;17.10;99.90;;;;;;5013746;28;20548;-62
2024/04/06 03:02:07;;;;;;;3.93;3.73;;;17.10;99.90;;;;;;5012777;28;20456;-61
2024/04/06 03:04:34;;;;;;;4.23;4.03;;;17.00;99.90;;;;;;5013778;28;20179;-62
2024/04/06 03:07:00;;;;;;;3.87;3.67;;;17.00;99.90;;;;;;5013702;28;20425;-63
2024/04/06 03:09:26;;;;;;;3.40;3.27;;;16.90;99.90;;;;;;5013423;28;20421;-62
2024/04/06 03:11:51;;;;;;;4.23;4.03;;;16.90;99.90;;;;;;5012521;28;20921;-62
2024/04/06 03:14:17;;;;;;;4.10;3.80;;;16.90;99.90;;;;;;5013005;28;20286;-62
2024/04/06 03:16:43;;;;;;;4.67;4.37;;;16.80;99.90;;;;;;5013261;28;20175;-62
2024/04/06 03:19:08;;;;;;;4.70;4.40;;;16.70;99.90;;;;;;5012884;28;20194;-61
2024/04/06 03:21:34;;;;;;;4.97;4.67;;;16.70;99.90;;;;;;5013957;28;20603;-62
2024/04/06 03:24:00;;;;;;;5.10;4.80;;;16.60;99.90;;;;;;5012213;28;20182;-62
2024/04/06 03:26:26;;;;;;;4.40;4.20;;;16.60;99.90;;;;;;5012710;28;20179;-62
2024/04/06 03:28:51;;;;;;;5.20;4.80;;;16.60;99.90;;;;;;4994214;28;20184;-62
2024/04/06 03:31:18;;;;;;;4.47;4.27;;;16.50;99.90;;;;;;5007890;28;20685;-62
2024/04/06 03:33:43;;;;;;;4.43;4.23;;;16.50;99.90;;;;;;5013377;28;20214;-62
2024/04/06 03:36:09;;;;;;;4.10;3.90;;;16.40;99.90;;;;;;5012832;28;20491;-61
2024/04/06 03:38:35;;;;;;;4.73;4.43;;;16.40;99.90;;;;;;5012686;28;20190;-62
2024/04/06 03:41:00;;;;;;;4.70;4.50;;;16.30;99.90;;;;;;5013025;28;20256;-62
2024/04/06 03:43:27;;;;;;;4.73;4.53;;;16.20;99.90;;;;;;5012813;28;20285;-62
2024/04/06 03:45:54;;;;;;;4.73;4.40;;;16.20;99.90;;;;;;5013060;28;20438;-62
2024/04/06 03:48:24;;;;;;;4.70;4.50;;;16.20;99.90;;;;;;5012461;28;20171;-62
2024/04/06 03:50:49;;;;;;;4.10;4.00;;;16.10;99.90;;;;;;5012914;28;20426;-62
2024/04/06 03:53:28;;;;;;;4.57;4.37;;;16.00;99.90;;;;;;5011700;28;20465;-62
2024/04/06 03:55:53;;;;;;;5.63;4.57;;;16.00;99.90;;;;;;5012428;28;20238;-62
2024/04/06 03:58:19;;;;;;;4.17;3.97;;;16.00;99.90;;;;;;5012347;28;20897;-62
2024/04/06 04:00:45;;;;;;;4.30;4.10;;;16.00;99.90;;;;;;5011967;28;20269;-62
2024/04/06 04:03:10;;;;;;;4.40;4.10;;;16.00;99.90;;;;;;5011722;28;20226;-62
2024/04/06 04:05:36;;;;;;;4.10;3.90;;;16.10;99.90;;;;;;5012854;28;20187;-62
2024/04/06 04:08:02;;;;;;;4.50;4.20;;;16.10;99.90;;;;;;5011719;28;20175;-62
2024/04/06 04:10:27;;;;;;;4.23;4.03;;;16.10;99.90;;;;;;5012468;28;20178;-62
2024/04/06 04:12:53;;;;;;;4.53;4.20;;;16.10;99.90;;;;;;5012649;28;20225;-62
2024/04/06 04:15:19;;;;;;;4.30;4.07;;;16.10;99.90;;;;;;5012097;28;20635;-62
2024/04/06 04:17:45;;;;;;;4.20;4.10;;;16.10;99.90;;;;;;5011680;28;20183;-62
2024/04/06 04:20:10;;;;;;;4.73;4.43;;;16.00;99.90;;;;;;5011867;28;20418;-61
2024/04/06 04:22:36;;;;;;;4.13;3.93;;;16.00;99.90;;;;;;5012235;28;20269;-62
2024/04/06 04:25:02;;;;;;;4.63;3.90;;;15.90;99.90;;;;;;5012732;28;20179;-62
2024/04/06 04:27:28;;;;;;;4.60;4.30;;;16.00;99.90;;;;;;5011652;28;20347;-61
2024/04/06 04:29:54;;;;;;;4.80;4.50;;;15.80;99.90;;;;;;5012968;28;20254;-62
2024/04/06 04:32:20;;;;;;;4.40;4.20;;;15.90;99.90;;;;;;5011988;28;21012;-62
2024/04/06 04:34:45;;;;;;;4.77;4.47;;;15.80;99.90;;;;;;5012499;28;20481;-62
2024/04/06 04:37:11;;;;;;;4.37;4.10;;;15.80;99.90;;;;;;5011953;28;20175;-62
2024/04/06 04:39:37;;;;;;;4.30;4.10;;;15.90;99.90;;;;;;5012393;28;20182;-62
2024/04/06 04:42:03;;;;;;;4.00;3.80;;;15.90;99.90;;;;;;5012394;28;20183;-62
2024/04/06 04:44:29;;;;;;;5.90;4.40;;;15.90;99.90;;;;;;5011997;28;20292;-62
2024/04/06 04:46:55;;;;;;;4.93;4.43;;;15.90;99.90;;;;;;5011197;28;20456;-62
2024/04/06 04:49:22;;;;;;;4.30;4.20;;;15.90;99.90;;;;;;5010447;28;20242;-62
2024/04/06 04:51:48;;;;;;;4.60;4.30;;;15.90;99.90;;;;;;5015594;28;20182;-62
2024/04/06 04:54:14;;;;;;;4.23;3.97;;;15.80;99.90;;;;;;5014372;28;20449;-62
2024/04/06 04:56:40;;;;;;;4.50;4.30;;;15.80;99.90;;;;;;5016031;28;20186;-62
2024/04/06 04:59:06;;;;;;;4.57;4.37;;;15.80;99.90;;;;;;5015020;28;20928;-62
2024/04/06 05:01:32;;;;;;;4.43;4.20;;;15.80;99.90;;;;;;5015424;28;20179;-61
2024/04/06 05:03:58;;;;;;;4.73;4.53;;;15.70;99.90;;;;;;5016235;28;20421;-62
2024/04/06 05:06:24;;;;;;;4.50;4.30;;;15.70;99.90;;;;;;5015753;28;20425;-62
2024/04/06 05:08:49;;;;;;;4.80;4.60;;;15.70;99.90;;;;;;5015994;28;20230;-62
2024/04/06 05:11:15;;;;;;;4.87;4.57;;;15.60;99.90;;;;;;5015259;28;20261;-61
2024/04/06 05:13:41;;;;;;;4.80;4.50;;;15.60;99.90;;;;;;5015329;28;20230;-61
2024/04/06 05:16:07;;;;;;;5.20;4.90;;;15.50;99.90;;;;;;5015845;28;20186;-62
2024/04/06 05:18:32;;;;;;;5.40;5.00;;;15.50;99.90;;;;;;5014722;28;20634;-62
2024/04/06 05:21:00;;;;;;;5.60;5.10;;;15.50;99.90;;;;;;5016109;28;20175;-62
2024/04/06 05:23:27;;;;;;;13.73;11.70;;;15.50;99.90;;;;;;5012054;28;20182;-61
2024/04/06 05:25:53;;;;;;;7.50;7.00;;;15.50;99.90;;;;;;5015019;28;20459;-62
2024/04/06 05:28:25;;;;;;;5.13;4.83;;;15.60;99.90;;;;;;5014945;28;20422;-61
2024/04/06 05:30:51;;;;;;;8.27;6.77;;;15.60;99.90;;;;;;5015743;28;20414;-62
2024/04/06 05:33:19;;;;;;;6.50;6.03;;;15.60;99.90;;;;;;5014784;28;20461;-62
2024/04/06 05:35:47;;;;;;;5.87;5.57;;;15.60;99.90;;;;;;5015806;28;20433;-62
2024/04/06 05:38:14;;;;;;;7.17;6.57;;;15.60;99.90;;;;;;5014916;28;20500;-61
2024/04/06 05:40:40;;;;;;;7.57;6.90;;;15.60;99.90;;;;;;5014863;28;20432;-62
2024/04/06 05:43:09;;;;;;;6.87;6.37;;;15.70;99.90;;;;;;5020434;28;20455;-61
2024/04/06 05:45:39;;;;;;;4.80;4.50;;;15.70;99.90;;;;;;5013509;28;20504;-64
2024/04/06 05:48:06;;;;;;;4.60;4.40;;;15.80;99.90;;;;;;5013952;28;20795;-62
2024/04/06 05:50:33;;;;;;;5.10;4.83;;;15.90;99.90;;;;;;5009929;28;20422;-63
2024/04/06 05:52:59;;;;;;;4.97;4.57;;;15.90;99.90;;;;;;5013856;28;20457;-63
2024/04/06 05:55:25;;;;;;;7.87;7.27;;;16.00;99.90;;;;;;5013004;28;20438;-63
2024/04/06 05:57:51;;;;;;;8.90;7.83;;;16.00;99.90;;;;;;5014949;28;20458;-63
2024/04/06 06:00:18;;;;;;;6.53;6.03;;;16.10;99.90;;;;;;5014890;28;20421;-63
2024/04/06 06:02:44;;;;;;;6.70;6.30;;;16.20;99.90;;;;;;5014027;28;20457;-63
2024/04/06 06:05:10;;;;;;;10.77;6.97;;;16.20;99.90;;;;;;4998776;28;20441;-68
2024/04/06 06:07:37;;;;;;;6.20;5.77;;;16.30;99.90;;;;;;5013376;28;20433;-62
2024/04/06 06:10:03;;;;;;;6.00;5.57;;;16.30;99.90;;;;;;5012312;28;20436;-63
2024/04/06 06:12:29;;;;;;;5.80;5.40;;;16.40;99.90;;;;;;5011647;28;20480;-63
2024/04/06 06:14:55;;;;;;;5.27;5.03;;;16.50;99.90;;;;;;5014887;28;20446;-63
2024/04/06 06:17:21;;;;;;;4.87;4.57;;;16.60;99.90;;;;;;5003712;28;20199;-64
2024/04/06 06:19:46;;;;;;;4.40;4.20;;;16.70;99.90;;;;;;5008285;28;20180;-63
2024/04/06 06:22:12;;;;;;;5.00;4.70;;;16.70;99.90;;;;;;5005717;28;20172;-63
2024/04/06 06:24:38;;;;;;;4.73;4.40;;;16.80;99.90;;;;;;5006881;28;20183;-63
2024/04/06 06:27:05;;;;;;;4.80;4.40;;;16.90;99.90;;;;;;5014562;28;20182;-65
2024/04/06 06:29:33;;;;;;;5.03;4.73;;;16.90;99.90;;;;;;5013206;28;20406;-64
2024/04/06 06:31:58;;;;;;;5.13;4.73;;;17.00;99.90;;;;;;5011337;28;20937;-63
2024/04/06 06:34:24;;;;;;;4.23;4.03;;;17.10;99.90;;;;;;5011365;28;20472;-63
2024/04/06 06:36:50;;;;;;;4.07;3.80;;;17.00;99.90;;;;;;5014336;28;20187;-63
2024/04/06 06:39:16;;;;;;;4.73;4.43;;;16.90;99.90;;;;;;5014300;28;20179;-71
2024/04/06 06:41:42;;;;;;;5.53;5.07;;;16.90;99.90;;;;;;5014547;28;20184;-63
2024/04/06 06:44:08;;;;;;;5.63;5.30;;;17.00;99.90;;;;;;5014348;28;20823;-68
2024/04/06 06:46:35;;;;;;;5.80;5.50;;;17.10;99.90;;;;;;5016498;28;20421;-68
2024/04/06 06:49:01;;;;;;;5.90;5.60;;;17.20;99.90;;;;;;5014774;28;20413;-68
2024/04/06 06:51:27;;;;;;;5.50;5.10;;;17.40;99.90;;;;;;5013562;28;20513;-68
2024/04/06 06:53:53;;;;;;;7.57;6.97;;;17.60;99.90;;;;;;5013972;28;20442;-68
2024/04/06 06:56:22;;;;;;;5.17;4.90;;;17.80;99.90;;;;;;5013467;28;20448;-68
2024/04/06 06:58:51;;;;;;;5.37;5.03;;;17.90;99.90;;;;;;5009506;28;20901;-68
2024/04/06 07:01:17;;;;;;;5.00;4.80;;;18.10;99.90;;;;;;5013409;28;20441;-71
2024/04/06 07:03:43;;;;;;;8.80;5.40;;;18.30;99.90;;;;;;5013084;28;20508;-69
2024/04/06 07:06:12;;;;;;;13.07;11.10;;;18.50;99.90;;;;;;5013546;28;20856;-70
2024/04/06 07:08:42;;;;;;;7.50;6.90;;;18.70;99.90;;;;;;5013438;28;20441;-70
2024/04/06 07:11:09;;;;;;;6.23;5.73;;;18.70;99.90;;;;;;5011001;28;20429;-70
2024/04/06 07:13:35;;;;;;;5.70;5.10;;;18.80;99.90;;;;;;5012538;28;20551;-70
2024/04/06 07:16:08;;;;;;;4.57;4.27;;;18.80;99.90;;;;;;5013661;28;20410;-70
2024/04/06 07:18:35;;;;;;;4.60;4.40;;;18.90;99.90;;;;;;5013257;28;20880;-70
2024/04/06 07:21:01;;;;;;;9.83;8.80;;;19.00;99.90;;;;;;5012401;28;20513;-70
2024/04/06 07:23:26;;;;;;;7.17;5.23;;;19.20;99.90;;;;;;5012777;28;20577;-71
2024/04/06 07:25:53;;;;;;;10.93;5.90;;;19.30;99.90;;;;;;5012537;28;20487;-71
2024/04/06 07:28:19;;;;;;;14.30;8.10;;;19.40;99.90;;;;;;5013082;28;20206;-77
2024/04/06 07:30:45;;;;;;;5.93;5.53;;;19.50;99.90;;;;;;5013205;28;20503;-62
2024/04/06 07:33:11;;;;;;;4.13;3.80;;;19.50;99.90;;;;;;5013226;28;20458;-64
2024/04/06 07:35:40;;;;;;;4.17;3.97;;;19.20;99.90;;;;;;5012728;28;20244;-62
2024/04/06 07:38:05;;;;;;;4.37;4.07;;;19.30;99.90;;;;;;5013660;28;20402;-62
2024/04/06 07:40:32;;;;;;;3.77;3.47;;;19.20;99.90;;;;;;5013136;28;20406;-62
2024/04/06 07:42:59;;;;;;;4.20;3.90;;;19.10;99.90;;;;;;5013501;28;20193;-62
2024/04/06 07:45:25;;;;;;;7.77;7.17;;;18.80;99.90;;;;;;5011803;28;20505;-62
2024/04/06 07:47:52;;;;;;;5.70;5.30;;;18.60;99.90;;;;;;5013301;28;20997;-62
2024/04/06 07:50:18;;;;;;;4.23;3.80;;;18.60;99.90;;;;;;5012385;28;20697;-62
2024/04/06 07:52:44;;;;;;;4.23;3.80;;;18.60;99.90;;;;;;5012812;28;20410;-62
2024/04/06 07:55:11;;;;;;;3.93;3.73;;;18.50;99.90;;;;;;5013576;28;20175;-62
2024/04/06 07:57:36;;;;;;;3.60;3.40;;;18.40;99.90;;;;;;5012540;28;20930;-62
2024/04/06 08:00:03;;;;;;;3.67;3.47;;;18.40;99.90;;;;;;5012722;28;20402;-62
2024/04/06 08:02:30;;;;;;;4.17;3.87;;;18.40;99.90;;;;;;5011688;28;20214;-62
2024/04/06 08:04:56;;;;;;;5.37;3.97;;;18.60;99.90;;;;;;4993673;28;20423;-62
2024/04/06 08:07:23;;;;;;;4.10;3.80;;;18.40;99.90;;;;;;4993045;28;20542;-62
2024/04/06 08:09:49;;;;;;;4.27;4.00;;;18.40;99.90;;;;;;4996728;28;20405;-63
2024/04/06 08:12:14;;;;;;;6.70;4.10;;;18.40;99.90;;;;;;5011486;28;20421;-62
2024/04/06 08:14:40;;;;;;;5.10;4.70;;;18.50;99.90;;;;;;4994177;28;20962;-63
2024/04/06 08:17:06;;;;;;;4.50;4.03;;;18.60;99.90;;;;;;5011703;28;20194;-62
2024/04/06 08:19:32;;;;;;;3.87;3.67;;;18.60;99.90;;;;;;5012233;28;20175;-63
2024/04/06 08:21:58;;;;;;;3.80;3.50;;;18.70;99.90;;;;;;5012122;28;20548;-62
2024/04/06 08:24:23;;;;;;;3.60;3.47;;;18.70;99.90;;;;;;5011957;28;20175;-63
2024/04/06 08:26:49;;;;;;;3.70;3.40;;;18.80;99.90;;;;;;5011559;28;20254;-62
2024/04/06 08:29:15;;;;;;;4.10;3.80;;;18.90;99.90;;;;;;5011620;28;20171;-62
2024/04/06 08:31:41;;;;;;;3.93;3.63;;;18.90;99.90;;;;;;5011272;28;20767;-63
2024/04/06 08:34:08;;;;;;;3.73;3.40;;;19.00;99.90;;;;;;5012106;28;20550;-63
2024/04/06 08:36:34;;;;;;;3.20;3.10;;;19.10;99.90;;;;;;5010139;28;20505;-63
2024/04/06 08:39:01;;;;;;;3.90;3.67;;;19.20;99.90;;;;;;5010724;28;20464;-62
2024/04/06 08:41:28;;;;;;;4.13;3.80;;;19.20;99.90;;;;;;5015786;28;20484;-64
2024/04/06 08:44:00;;;;;;;3.90;3.53;;;19.30;99.90;;;;;;5007237;28;20509;-62
2024/04/06 08:46:26;;;;;;;3.53;3.30;;;19.50;99.90;;;;;;5007377;28;20410;-62
2024/04/06 08:48:52;;;;;;;3.70;3.50;;;19.50;99.90;;;;;;5011742;28;20410;-62
2024/04/06 08:51:19;;;;;;;3.87;3.57;;;19.60;99.90;;;;;;5012260;28;20464;-62
2024/04/06 08:53:45;;;;;;;3.20;3.00;;;19.70;99.90;;;;;;5011962;28;20446;-62
2024/04/06 08:56:15;;;;;;;3.40;3.20;;;19.80;99.90;;;;;;5012604;28;20850;-62
2024/04/06 08:58:42;;;;;;;3.20;2.90;;;19.90;99.90;;;;;;5011410;28;20410;-62
2024/04/06 09:01:07;;;;;;;3.57;3.37;;;20.00;99.20;;;;;;5012415;28;20501;-62
2024/04/06 09:03:33;;;;;;;2.80;2.70;;;20.10;98.70;;;;;;5011770;28;20553;-62
2024/04/06 09:05:59;;;;;;;3.10;2.90;;;20.10;99.50;;;;;;5012268;28;20171;-62
2024/04/06 09:08:26;;;;;;;3.20;2.90;;;20.30;98.00;;;;;;5011899;28;20761;-64
2024/04/06 09:10:58;;;;;;;3.23;3.03;;;20.30;97.80;;;;;;5012091;28;20410;-62
2024/04/06 09:13:25;;;;;;;3.80;3.50;;;20.50;98.50;;;;;;5011222;28;20458;-61
2024/04/06 09:15:51;;;;;;;7.90;3.20;;;20.60;96.90;;;;;;5012272;28;20429;-63
2024/04/06 09:18:17;;;;;;;3.40;3.20;;;20.80;95.60;;;;;;5011985;28;20467;-67
2024/04/06 09:20:50;;;;;;;3.33;3.10;;;20.90;95.10;;;;;;5009934;28;20417;-67
2024/04/06 09:23:17;;;;;;;3.60;3.40;;;21.00;95.10;;;;;;5011396;28;20897;-67
2024/04/06 09:25:42;;;;;;;3.63;3.43;;;21.10;95.40;;;;;;5002340;28;20443;-67
2024/04/06 09:28:10;;;;;;;4.77;4.37;;;21.20;93.50;;;;;;4997007;28;20504;-67
2024/04/06 09:30:43;;;;;;;3.57;3.30;;;21.40;96.10;;;;;;5008124;28;20314;-67
2024/04/06 09:33:11;;;;;;;3.33;3.13;;;21.80;95.20;;;;;;5011723;28;20552;-67
2024/04/06 09:35:41;;;;;;;4.43;4.03;;;21.90;92.70;;;;;;5010995;28;20573;-69
2024/04/06 09:38:13;;;;;;;3.40;3.00;;;22.10;93.90;;;;;;5013313;28;20464;-68
2024/04/06 09:40:43;;;;;;;4.07;3.77;;;22.30;91.70;;;;;;5014707;28;20414;-67
2024/04/06 09:43:09;;;;;;;4.40;3.97;;;22.40;91.40;;;;;;5015473;28;20413;-67
2024/04/06 09:45:35;;;;;;;20.47;18.27;;;22.70;92.10;;;;;;5014671;28;20406;-67
2024/04/06 09:48:02;;;;;;;10.83;9.80;;;22.90;90.10;;;;;;5015155;28;20755;-67
2024/04/06 09:50:30;;;;;;;16.23;14.73;;;23.10;88.80;;;;;;5014808;28;20890;-71
2024/04/06 09:52:56;;;;;;;3.47;3.20;;;23.20;86.40;;;;;;5015052;28;20446;-67
2024/04/06 09:55:26;;;;;;;3.30;3.13;;;23.20;85.50;;;;;;5013721;28;20422;-67
2024/04/06 09:57:52;;;;;;;3.30;3.10;;;23.10;85.60;;;;;;5013437;28;20433;-68
2024/04/06 10:00:18;;;;;;;3.23;3.00;;;23.30;84.40;;;;;;5015026;28;20442;-62
2024/04/06 10:02:44;;;;;;;4.83;3.80;;;23.40;85.50;;;;;;5013770;28;20231;-62
2024/04/06 10:05:11;;;;;;;3.20;3.00;;;23.60;82.90;;;;;;5013264;28;20430;-62
2024/04/06 10:07:37;;;;;;;4.00;3.10;;;23.60;82.20;;;;;;5013522;28;20191;-62
2024/04/06 10:10:05;;;;;;;3.33;3.13;;;23.70;84.00;;;;;;5013351;28;20458;-62
2024/04/06 10:12:46;;;;;;;2.90;2.80;;;23.90;80.80;;;;;;5014393;28;20413;-74
2024/04/06 10:15:18;;;;;;;2.83;2.73;;;24.00;82.80;;;;;;5013957;28;20429;-62
2024/04/06 10:17:53;;;;;;;3.77;3.27;;;24.10;79.90;;;;;;5009968;28;20532;-62
2024/04/06 10:20:23;;;;;;;3.10;3.00;;;24.00;79.00;;;;;;5014042;28;20409;-62
2024/04/06 10:23:01;;;;;;;3.53;3.33;;;24.10;78.30;;;;;;5011720;28;20437;-62
2024/04/06 10:25:36;;;;;;;4.17;3.30;;;24.20;79.00;;;;;;5014488;28;20881;-62
2024/04/06 10:28:03;;;;;;;4.57;3.37;;;24.30;77.50;;;;;;5014690;28;20413;-62
2024/04/06 10:30:29;;;;;;;3.20;3.10;;;24.50;80.70;;;;;;5014659;28;20460;-62
2024/04/06 10:32:55;;;;;;;3.30;3.10;;;24.70;77.40;;;;;;5013726;28;20406;-62
2024/04/06 10:35:21;;;;;;;3.43;3.23;;;24.90;78.80;;;;;;5014416;28;20513;-63
2024/04/06 10:37:47;;;;;;;3.97;3.67;;;25.10;76.10;;;;;;5014653;28;20417;-63
2024/04/06 10:40:13;;;;;;;22.10;17.17;;;25.30;77.70;;;;;;5014724;28;20491;-61
2024/04/06 10:42:40;;;;;;;45.07;40.20;;;25.30;74.90;;;;;;5013755;28;20394;-63
2024/04/06 10:45:08;;;;;;;6.60;6.07;;;25.40;75.00;;;;;;5014543;28;20413;-62
2024/04/06 10:47:34;;;;;;;3.80;3.47;;;25.70;75.30;;;;;;5012264;28;20433;-62
2024/04/06 10:50:00;;;;;;;6.63;3.13;;;25.90;73.50;;;;;;5013059;28;20437;-61
2024/04/06 10:52:28;;;;;;;4.70;3.30;;;25.70;69.80;;;;;;5014071;28;20414;-62
2024/04/06 10:54:55;;;;;;;3.30;3.20;;;25.50;68.90;;;;;;5013191;28;20658;-62
2024/04/06 10:57:22;;;;;;;3.70;3.50;;;25.10;69.20;;;;;;5013072;28;20414;-61
2024/04/06 10:59:48;;;;;;;3.67;3.47;;;25.00;70.50;;;;;;5013570;28;20413;-61
2024/04/06 11:02:15;;;;;;;3.20;3.00;;;25.00;71.80;;;;;;5013450;28;20477;-62
2024/04/06 11:04:41;;;;;;;3.43;3.33;;;24.90;72.30;;;;;;5013629;28;20406;-62
2024/04/06 11:07:07;;;;;;;3.90;3.70;;;24.80;69.50;;;;;;5014133;28;20773;-62
2024/04/06 11:09:35;;;;;;;4.47;3.30;;;24.70;69.60;;;;;;5011656;28;20183;-74
2024/04/06 11:12:02;;;;;;;3.77;3.57;;;24.70;70.70;;;;;;5013197;28;20449;-62
2024/04/06 11:14:29;;;;;;;3.63;3.40;;;24.70;70.00;;;;;;5012192;28;20458;-62
2024/04/06 11:16:55;;;;;;;3.60;3.40;;;24.70;72.90;;;;;;5013091;28;20418;-65
2024/04/06 11:19:24;;;;;;;3.93;3.73;;;24.90;71.00;;;;;;5013407;28;20421;-62
2024/04/06 11:21:50;;;;;;;3.83;3.63;;;25.20;71.10;;;;;;5012650;28;20178;-62
2024/04/06 11:24:16;;;;;;;4.20;3.90;;;25.40;67.90;;;;;;5013405;28;20428;-62
2024/04/06 11:26:41;;;;;;;3.70;3.50;;;25.20;66.60;;;;;;5013136;28;20402;-62
2024/04/06 11:29:10;;;;;;;3.83;3.53;;;25.20;66.70;;;;;;5013449;28;20468;-62
2024/04/06 11:31:36;;;;;;;3.90;3.60;;;25.10;66.10;;;;;;5012781;28;20178;-63
2024/04/06 11:34:02;;;;;;;3.30;3.20;;;25.20;67.00;;;;;;5014086;28;20453;-62
2024/04/06 11:36:29;;;;;;;3.70;3.40;;;25.20;65.50;;;;;;5012703;28;20187;-62
2024/04/06 11:38:56;;;;;;;3.50;3.30;;;25.40;66.70;;;;;;5012041;28;20179;-63
2024/04/06 11:41:21;;;;;;;3.57;3.40;;;25.40;66.10;;;;;;5013113;28;20422;-62
2024/04/06 11:43:47;;;;;;;3.47;3.37;;;25.50;66.50;;;;;;5011468;28;20445;-62
2024/04/06 11:46:13;;;;;;;3.30;3.20;;;25.60;66.70;;;;;;5013486;28;20179;-62
2024/04/06 11:48:38;;;;;;;4.13;3.50;;;25.60;67.40;;;;;;5012242;28;20175;-62
2024/04/06 11:51:04;;;;;;;4.00;3.70;;;25.60;64.10;;;;;;5012790;28;20175;-63
2024/04/06 11:53:34;;;;;;;106.53;91.27;;;25.60;64.50;;;;;;5012745;28;20204;-62
2024/04/06 11:56:01;;;;;;;5.38;5.07;;;25.70;65.20;;;;;;5011903;28;20407;-62
2024/04/06 11:58:27;;;;;;;4.70;4.50;;;25.90;62.70;;;;;;5010119;28;20186;-62
2024/04/06 12:00:53;;;;;;;3.63;3.33;;;26.10;63.30;;;;;;5011221;28;20422;-62
2024/04/06 12:03:19;;;;;;;2.93;2.83;;;25.90;60.00;;;;;;5012626;28;20469;-63
2024/04/06 12:05:45;;;;;;;4.50;4.30;;;26.10;63.40;;;;;;5012035;28;20535;-62
2024/04/06 12:08:11;;;;;;;3.10;3.00;;;26.20;61.60;;;;;;5012887;28;20441;-63
2024/04/06 12:10:37;;;;;;;3.60;3.40;;;26.30;59.70;;;;;;5012161;28;20418;-72
2024/04/06 12:13:03;;;;;;;3.13;3.03;;;26.20;58.20;;;;;;5011645;28;20195;-64
2024/04/06 12:15:29;;;;;;;3.53;3.30;;;26.10;58.80;;;;;;5011901;28;20183;-63
2024/04/06 12:17:55;;;;;;;3.30;3.10;;;26.20;58.90;;;;;;5012096;28;20502;-62
2024/04/06 12:20:21;;;;;;;2.90;2.80;;;26.00;57.00;;;;;;5012619;28;20406;-62
2024/04/06 12:22:47;;;;;;;3.63;3.33;;;25.80;56.30;;;;;;5010798;28;20244;-62
2024/04/06 12:25:13;;;;;;;3.10;3.00;;;25.80;56.10;;;;;;5011632;28;20206;-62
2024/04/06 12:27:38;;;;;;;3.40;3.10;;;26.00;54.50;;;;;;5012120;28;20673;-72
2024/04/06 12:30:09;;;;;;;3.10;3.00;;;26.00;53.00;;;;;;5012305;28;20179;-62
2024/04/06 12:32:35;;;;;;;2.97;2.87;;;26.10;54.10;;;;;;5012812;28;20229;-62
2024/04/06 12:35:01;;;;;;;3.50;3.30;;;26.10;52.30;;;;;;5011613;28;20466;-64
2024/04/06 12:37:27;;;;;;;2.60;2.50;;;26.00;53.10;;;;;;5012515;28;20175;-64
2024/04/06 12:39:53;;;;;;;3.50;3.20;;;26.00;52.80;;;;;;5011355;28;20469;-64
2024/04/06 12:42:18;;;;;;;3.27;3.07;;;26.10;54.00;;;;;;5011307;28;20534;-64